sensor_id;sensor_type;location;lat;lon;timestamp;P1;durP1;ratioP1;P2;durP2;ratioP2
5722;SDS011;2886;49.722;8.612;2023-04-24T00:00:56;1.67;;;1.20;;
5722;SDS011;2886;49.722;8.612;2023-04-24T00:03:22;1.20;;;1.10;;
5722;SDS011;2886;49.722;8.612;2023-04-24T00:05:48;2.30;;;1.30;;
5722;SDS011;2886;49.722;8.612;2023-04-24T00:08:14;1.63;;;1.20;;
5722;SDS011;2886;49.722;8.612;2023-04-24T00:10:40;2.23;;;1.50;;
5722;SDS011;2886;49.722;8.612;2023-04-24T00:13:06;1.80;;;1.43;;
5722;SDS011;2886;49.722;8.612;2023-04-24T00:15:32;3.10;;;1.37;;
5722;SDS011;2886;49.722;8.612;2023-04-24T00:17:58;2.70;;;1.10;;
5722;SDS011;2886;49.722;8.612;2023-04-24T00:20:23;1.63;;;1.40;;
5722;SDS011;2886;49.722;8.612;2023-04-24T00:22:49;3.33;;;1.70;;
5722;SDS011;2886;49.722;8.612;2023-04-24T00:25:14;1.50;;;1.40;;
5722;SDS011;2886;49.722;8.612;2023-04-24T00:27:40;3.13;;;1.50;;
5722;SDS011;2886;49.722;8.612;2023-04-24T00:30:06;1.50;;;1.40;;
5722;SDS011;2886;49.722;8.612;2023-04-24T00:32:32;3.30;;;1.40;;
5722;SDS011;2886;49.722;8.612;2023-04-24T00:34:58;1.40;;;1.30;;
5722;SDS011;2886;49.722;8.612;2023-04-24T00:37:23;1.23;;;1.13;;
5722;SDS011;2886;49.722;8.612;2023-04-24T00:39:49;1.63;;;1.53;;
5722;SDS011;2886;49.722;8.612;2023-04-24T00:42:15;5.80;;;2.20;;
5722;SDS011;2886;49.722;8.612;2023-04-24T00:44:40;2.57;;;1.23;;
5722;SDS011;2886;49.722;8.612;2023-04-24T00:47:06;3.10;;;1.40;;
5722;SDS011;2886;49.722;8.612;2023-04-24T00:49:32;1.23;;;1.13;;
5722;SDS011;2886;49.722;8.612;2023-04-24T00:51:58;1.50;;;1.40;;
5722;SDS011;2886;49.722;8.612;2023-04-24T00:54:24;1.43;;;1.33;;
5722;SDS011;2886;49.722;8.612;2023-04-24T00:56:50;2.13;;;1.53;;
5722;SDS011;2886;49.722;8.612;2023-04-24T00:59:16;4.10;;;1.40;;
5722;SDS011;2886;49.722;8.612;2023-04-24T01:01:43;8.80;;;1.40;;
5722;SDS011;2886;49.722;8.612;2023-04-24T01:04:10;1.70;;;1.53;;
5722;SDS011;2886;49.722;8.612;2023-04-24T01:06:40;1.70;;;1.60;;
5722;SDS011;2886;49.722;8.612;2023-04-24T01:09:09;3.50;;;1.20;;
5722;SDS011;2886;49.722;8.612;2023-04-24T01:11:37;3.83;;;1.23;;
5722;SDS011;2886;49.722;8.612;2023-04-24T01:14:03;1.70;;;1.20;;
5722;SDS011;2886;49.722;8.612;2023-04-24T01:16:31;1.53;;;1.23;;
5722;SDS011;2886;49.722;8.612;2023-04-24T01:18:56;1.77;;;1.57;;
5722;SDS011;2886;49.722;8.612;2023-04-24T01:21:22;1.70;;;1.60;;
5722;SDS011;2886;49.722;8.612;2023-04-24T01:23:52;2.03;;;1.30;;
5722;SDS011;2886;49.722;8.612;2023-04-24T01:26:18;1.60;;;1.30;;
5722;SDS011;2886;49.722;8.612;2023-04-24T01:31:31;2.20;;;1.43;;
5722;SDS011;2886;49.722;8.612;2023-04-24T01:33:58;2.10;;;1.20;;
5722;SDS011;2886;49.722;8.612;2023-04-24T01:36:23;2.13;;;1.50;;
5722;SDS011;2886;49.722;8.612;2023-04-24T01:38:52;10.17;;;1.70;;
5722;SDS011;2886;49.722;8.612;2023-04-24T01:41:17;1.30;;;1.20;;
5722;SDS011;2886;49.722;8.612;2023-04-24T01:43:45;3.10;;;1.60;;
5722;SDS011;2886;49.722;8.612;2023-04-24T01:46:11;2.30;;;1.27;;
5722;SDS011;2886;49.722;8.612;2023-04-24T01:48:36;1.50;;;1.30;;
5722;SDS011;2886;49.722;8.612;2023-04-24T01:51:02;20.63;;;1.60;;
5722;SDS011;2886;49.722;8.612;2023-04-24T01:53:28;2.40;;;1.67;;
5722;SDS011;2886;49.722;8.612;2023-04-24T01:55:53;3.70;;;1.33;;
5722;SDS011;2886;49.722;8.612;2023-04-24T01:58:19;3.00;;;1.30;;
5722;SDS011;2886;49.722;8.612;2023-04-24T02:00:45;3.63;;;1.20;;
5722;SDS011;2886;49.722;8.612;2023-04-24T02:03:10;2.60;;;1.30;;
5722;SDS011;2886;49.722;8.612;2023-04-24T02:05:43;1.30;;;1.20;;
5722;SDS011;2886;49.722;8.612;2023-04-24T02:08:10;10.60;;;1.43;;
5722;SDS011;2886;49.722;8.612;2023-04-24T02:10:35;2.97;;;1.60;;
5722;SDS011;2886;49.722;8.612;2023-04-24T02:13:01;1.93;;;1.70;;
5722;SDS011;2886;49.722;8.612;2023-04-24T02:15:27;1.60;;;1.30;;
5722;SDS011;2886;49.722;8.612;2023-04-24T02:17:53;1.20;;;1.10;;
5722;SDS011;2886;49.722;8.612;2023-04-24T02:20:18;1.70;;;1.40;;
5722;SDS011;2886;49.722;8.612;2023-04-24T02:22:44;4.90;;;1.33;;
5722;SDS011;2886;49.722;8.612;2023-04-24T02:25:10;1.67;;;1.30;;
5722;SDS011;2886;49.722;8.612;2023-04-24T02:27:35;5.27;;;1.90;;
5722;SDS011;2886;49.722;8.612;2023-04-24T02:30:01;1.97;;;1.47;;
5722;SDS011;2886;49.722;8.612;2023-04-24T02:32:28;2.47;;;1.70;;
5722;SDS011;2886;49.722;8.612;2023-04-24T02:34:53;4.17;;;1.80;;
5722;SDS011;2886;49.722;8.612;2023-04-24T02:37:19;12.73;;;1.80;;
5722;SDS011;2886;49.722;8.612;2023-04-24T02:39:44;3.30;;;1.63;;
5722;SDS011;2886;49.722;8.612;2023-04-24T02:42:10;2.17;;;1.70;;
5722;SDS011;2886;49.722;8.612;2023-04-24T02:44:36;3.10;;;2.10;;
5722;SDS011;2886;49.722;8.612;2023-04-24T02:47:02;4.00;;;1.83;;
5722;SDS011;2886;49.722;8.612;2023-04-24T02:49:28;3.97;;;1.43;;
5722;SDS011;2886;49.722;8.612;2023-04-24T02:51:54;2.57;;;1.83;;
5722;SDS011;2886;49.722;8.612;2023-04-24T02:54:19;2.10;;;1.90;;
5722;SDS011;2886;49.722;8.612;2023-04-24T02:56:45;2.40;;;2.00;;
5722;SDS011;2886;49.722;8.612;2023-04-24T02:59:11;4.97;;;1.70;;
5722;SDS011;2886;49.722;8.612;2023-04-24T03:01:36;2.67;;;1.93;;
5722;SDS011;2886;49.722;8.612;2023-04-24T03:04:02;1.90;;;1.40;;
5722;SDS011;2886;49.722;8.612;2023-04-24T03:06:30;1.87;;;1.60;;
5722;SDS011;2886;49.722;8.612;2023-04-24T03:08:57;3.30;;;1.70;;
5722;SDS011;2886;49.722;8.612;2023-04-24T03:11:23;2.17;;;1.70;;
5722;SDS011;2886;49.722;8.612;2023-04-24T03:13:48;2.27;;;1.80;;
5722;SDS011;2886;49.722;8.612;2023-04-24T03:16:14;2.10;;;1.90;;
5722;SDS011;2886;49.722;8.612;2023-04-24T03:18:41;2.30;;;1.73;;
5722;SDS011;2886;49.722;8.612;2023-04-24T03:21:06;2.13;;;1.93;;
5722;SDS011;2886;49.722;8.612;2023-04-24T03:23:32;2.70;;;1.70;;
5722;SDS011;2886;49.722;8.612;2023-04-24T03:25:58;2.57;;;1.77;;
5722;SDS011;2886;49.722;8.612;2023-04-24T03:28:23;2.50;;;2.00;;
5722;SDS011;2886;49.722;8.612;2023-04-24T03:30:50;1.50;;;1.40;;
5722;SDS011;2886;49.722;8.612;2023-04-24T03:33:15;2.50;;;1.80;;
5722;SDS011;2886;49.722;8.612;2023-04-24T03:35:41;2.07;;;1.90;;
5722;SDS011;2886;49.722;8.612;2023-04-24T03:38:06;1.70;;;1.50;;
5722;SDS011;2886;49.722;8.612;2023-04-24T03:40:35;2.93;;;1.60;;
5722;SDS011;2886;49.722;8.612;2023-04-24T03:43:01;2.93;;;1.70;;
5722;SDS011;2886;49.722;8.612;2023-04-24T03:45:27;1.50;;;1.40;;
5722;SDS011;2886;49.722;8.612;2023-04-24T03:47:53;4.30;;;2.30;;
5722;SDS011;2886;49.722;8.612;2023-04-24T03:50:18;2.33;;;1.40;;
5722;SDS011;2886;49.722;8.612;2023-04-24T03:52:44;2.33;;;1.87;;
5722;SDS011;2886;49.722;8.612;2023-04-24T03:55:16;2.53;;;2.03;;
5722;SDS011;2886;49.722;8.612;2023-04-24T03:57:53;2.23;;;1.60;;
5722;SDS011;2886;49.722;8.612;2023-04-24T04:00:18;3.80;;;2.10;;
5722;SDS011;2886;49.722;8.612;2023-04-24T04:02:44;4.10;;;1.50;;
5722;SDS011;2886;49.722;8.612;2023-04-24T04:05:10;2.43;;;2.00;;
5722;SDS011;2886;49.722;8.612;2023-04-24T04:07:35;2.97;;;2.00;;
5722;SDS011;2886;49.722;8.612;2023-04-24T04:10:01;2.23;;;1.93;;
5722;SDS011;2886;49.722;8.612;2023-04-24T04:12:26;2.43;;;2.03;;
5722;SDS011;2886;49.722;8.612;2023-04-24T04:14:52;1.97;;;1.80;;
5722;SDS011;2886;49.722;8.612;2023-04-24T04:17:18;2.20;;;1.93;;
5722;SDS011;2886;49.722;8.612;2023-04-24T04:19:43;2.77;;;2.33;;
5722;SDS011;2886;49.722;8.612;2023-04-24T04:22:09;2.00;;;1.90;;
5722;SDS011;2886;49.722;8.612;2023-04-24T04:24:35;6.77;;;2.60;;
5722;SDS011;2886;49.722;8.612;2023-04-24T04:27:03;3.43;;;2.73;;
5722;SDS011;2886;49.722;8.612;2023-04-24T04:29:29;4.03;;;2.50;;
5722;SDS011;2886;49.722;8.612;2023-04-24T04:31:56;3.20;;;2.40;;
5722;SDS011;2886;49.722;8.612;2023-04-24T04:34:22;2.60;;;2.40;;
5722;SDS011;2886;49.722;8.612;2023-04-24T04:36:48;3.07;;;2.63;;
5722;SDS011;2886;49.722;8.612;2023-04-24T04:39:15;10.63;;;3.07;;
5722;SDS011;2886;49.722;8.612;2023-04-24T04:41:41;3.37;;;2.50;;
5722;SDS011;2886;49.722;8.612;2023-04-24T04:44:07;2.67;;;2.47;;
5722;SDS011;2886;49.722;8.612;2023-04-24T04:46:33;2.90;;;2.27;;
5722;SDS011;2886;49.722;8.612;2023-04-24T04:49:00;3.10;;;2.70;;
5722;SDS011;2886;49.722;8.612;2023-04-24T04:51:26;3.97;;;3.00;;
5722;SDS011;2886;49.722;8.612;2023-04-24T04:53:52;3.50;;;2.63;;
5722;SDS011;2886;49.722;8.612;2023-04-24T04:56:18;5.87;;;3.30;;
5722;SDS011;2886;49.722;8.612;2023-04-24T04:58:43;4.30;;;2.47;;
5722;SDS011;2886;49.722;8.612;2023-04-24T05:01:09;3.70;;;2.77;;
5722;SDS011;2886;49.722;8.612;2023-04-24T05:03:35;3.40;;;2.70;;
5722;SDS011;2886;49.722;8.612;2023-04-24T05:06:01;3.10;;;2.80;;
5722;SDS011;2886;49.722;8.612;2023-04-24T05:08:27;5.87;;;2.37;;
5722;SDS011;2886;49.722;8.612;2023-04-24T05:10:55;3.10;;;2.80;;
5722;SDS011;2886;49.722;8.612;2023-04-24T05:13:20;3.33;;;2.50;;
5722;SDS011;2886;49.722;8.612;2023-04-24T05:15:46;2.60;;;2.33;;
5722;SDS011;2886;49.722;8.612;2023-04-24T05:18:12;3.77;;;3.00;;
5722;SDS011;2886;49.722;8.612;2023-04-24T05:20:37;5.63;;;3.23;;
5722;SDS011;2886;49.722;8.612;2023-04-24T05:23:03;4.40;;;3.10;;
5722;SDS011;2886;49.722;8.612;2023-04-24T05:25:28;3.90;;;3.00;;
5722;SDS011;2886;49.722;8.612;2023-04-24T05:27:57;3.50;;;2.63;;
5722;SDS011;2886;49.722;8.612;2023-04-24T05:30:22;4.03;;;3.20;;
5722;SDS011;2886;49.722;8.612;2023-04-24T05:32:48;5.60;;;3.00;;
5722;SDS011;2886;49.722;8.612;2023-04-24T05:35:13;3.93;;;3.10;;
5722;SDS011;2886;49.722;8.612;2023-04-24T05:37:39;3.63;;;3.00;;
5722;SDS011;2886;49.722;8.612;2023-04-24T05:40:05;3.43;;;2.97;;
5722;SDS011;2886;49.722;8.612;2023-04-24T05:42:31;5.30;;;3.50;;
5722;SDS011;2886;49.722;8.612;2023-04-24T05:44:57;6.60;;;3.30;;
5722;SDS011;2886;49.722;8.612;2023-04-24T05:47:24;3.47;;;3.17;;
5722;SDS011;2886;49.722;8.612;2023-04-24T05:49:51;4.37;;;3.50;;
5722;SDS011;2886;49.722;8.612;2023-04-24T05:52:17;5.10;;;3.60;;
5722;SDS011;2886;49.722;8.612;2023-04-24T05:54:42;9.70;;;3.40;;
5722;SDS011;2886;49.722;8.612;2023-04-24T05:57:08;6.97;;;4.13;;
5722;SDS011;2886;49.722;8.612;2023-04-24T05:59:36;4.27;;;3.30;;
5722;SDS011;2886;49.722;8.612;2023-04-24T06:02:03;3.97;;;3.10;;
5722;SDS011;2886;49.722;8.612;2023-04-24T06:04:29;3.50;;;3.10;;
5722;SDS011;2886;49.722;8.612;2023-04-24T06:06:54;4.67;;;3.50;;
5722;SDS011;2886;49.722;8.612;2023-04-24T06:09:21;4.23;;;3.10;;
5722;SDS011;2886;49.722;8.612;2023-04-24T06:11:48;5.90;;;3.30;;
5722;SDS011;2886;49.722;8.612;2023-04-24T06:14:14;4.90;;;3.53;;
5722;SDS011;2886;49.722;8.612;2023-04-24T06:16:41;4.50;;;3.80;;
5722;SDS011;2886;49.722;8.612;2023-04-24T06:19:07;6.57;;;3.70;;
5722;SDS011;2886;49.722;8.612;2023-04-24T06:21:33;4.30;;;3.70;;
5722;SDS011;2886;49.722;8.612;2023-04-24T06:23:58;7.23;;;3.87;;
5722;SDS011;2886;49.722;8.612;2023-04-24T06:26:24;4.03;;;3.63;;
5722;SDS011;2886;49.722;8.612;2023-04-24T06:28:52;6.17;;;3.67;;
5722;SDS011;2886;49.722;8.612;2023-04-24T06:31:21;4.57;;;3.40;;
5722;SDS011;2886;49.722;8.612;2023-04-24T06:33:48;6.97;;;3.50;;
5722;SDS011;2886;49.722;8.612;2023-04-24T06:36:14;8.83;;;3.80;;
5722;SDS011;2886;49.722;8.612;2023-04-24T06:38:40;6.27;;;4.03;;
5722;SDS011;2886;49.722;8.612;2023-04-24T06:41:06;9.17;;;3.60;;
5722;SDS011;2886;49.722;8.612;2023-04-24T06:43:32;5.60;;;4.23;;
5722;SDS011;2886;49.722;8.612;2023-04-24T06:45:58;6.10;;;3.30;;
5722;SDS011;2886;49.722;8.612;2023-04-24T06:48:25;6.30;;;4.13;;
5722;SDS011;2886;49.722;8.612;2023-04-24T06:50:51;5.70;;;3.93;;
5722;SDS011;2886;49.722;8.612;2023-04-24T06:53:17;5.83;;;4.20;;
5722;SDS011;2886;49.722;8.612;2023-04-24T06:55:43;5.30;;;3.97;;
5722;SDS011;2886;49.722;8.612;2023-04-24T06:58:11;7.90;;;3.90;;
5722;SDS011;2886;49.722;8.612;2023-04-24T07:00:37;4.50;;;3.87;;
5722;SDS011;2886;49.722;8.612;2023-04-24T07:03:03;6.33;;;4.33;;
5722;SDS011;2886;49.722;8.612;2023-04-24T07:05:30;5.87;;;4.13;;
5722;SDS011;2886;49.722;8.612;2023-04-24T07:07:56;4.00;;;3.10;;
5722;SDS011;2886;49.722;8.612;2023-04-24T07:10:23;4.57;;;3.77;;
5722;SDS011;2886;49.722;8.612;2023-04-24T07:12:49;5.10;;;3.63;;
5722;SDS011;2886;49.722;8.612;2023-04-24T07:15:15;5.67;;;3.50;;
5722;SDS011;2886;49.722;8.612;2023-04-24T07:17:41;5.30;;;3.40;;
5722;SDS011;2886;49.722;8.612;2023-04-24T07:20:09;5.37;;;3.60;;
5722;SDS011;2886;49.722;8.612;2023-04-24T07:22:35;4.83;;;3.80;;
5722;SDS011;2886;49.722;8.612;2023-04-24T07:25:02;8.63;;;3.03;;
5722;SDS011;2886;49.722;8.612;2023-04-24T07:27:28;4.40;;;2.80;;
5722;SDS011;2886;49.722;8.612;2023-04-24T07:29:53;4.60;;;3.10;;
5722;SDS011;2886;49.722;8.612;2023-04-24T07:32:19;5.50;;;2.90;;
5722;SDS011;2886;49.722;8.612;2023-04-24T07:34:45;3.20;;;2.90;;
5722;SDS011;2886;49.722;8.612;2023-04-24T07:37:10;5.07;;;3.33;;
5722;SDS011;2886;49.722;8.612;2023-04-24T07:39:36;3.00;;;2.60;;
5722;SDS011;2886;49.722;8.612;2023-04-24T07:42:02;5.20;;;2.80;;
5722;SDS011;2886;49.722;8.612;2023-04-24T07:44:28;5.00;;;3.03;;
5722;SDS011;2886;49.722;8.612;2023-04-24T07:46:54;2.53;;;2.33;;
5722;SDS011;2886;49.722;8.612;2023-04-24T07:49:20;5.70;;;3.77;;
5722;SDS011;2886;49.722;8.612;2023-04-24T07:51:46;2.87;;;2.57;;
5722;SDS011;2886;49.722;8.612;2023-04-24T07:54:12;2.60;;;2.40;;
5722;SDS011;2886;49.722;8.612;2023-04-24T07:56:37;4.10;;;2.70;;
5722;SDS011;2886;49.722;8.612;2023-04-24T07:59:04;2.37;;;2.17;;
5722;SDS011;2886;49.722;8.612;2023-04-24T08:01:30;3.30;;;2.50;;
5722;SDS011;2886;49.722;8.612;2023-04-24T08:03:55;3.40;;;2.50;;
5722;SDS011;2886;49.722;8.612;2023-04-24T08:06:21;4.50;;;2.00;;
5722;SDS011;2886;49.722;8.612;2023-04-24T08:08:47;2.97;;;2.00;;
5722;SDS011;2886;49.722;8.612;2023-04-24T08:11:12;2.20;;;1.80;;
5722;SDS011;2886;49.722;8.612;2023-04-24T08:13:38;4.13;;;1.87;;
5722;SDS011;2886;49.722;8.612;2023-04-24T08:16:04;2.13;;;1.80;;
5722;SDS011;2886;49.722;8.612;2023-04-24T08:18:29;2.20;;;2.00;;
5722;SDS011;2886;49.722;8.612;2023-04-24T08:20:55;2.10;;;1.90;;
5722;SDS011;2886;49.722;8.612;2023-04-24T08:23:26;3.30;;;2.40;;
5722;SDS011;2886;49.722;8.612;2023-04-24T08:25:51;8.87;;;2.10;;
5722;SDS011;2886;49.722;8.612;2023-04-24T08:28:17;2.57;;;2.37;;
5722;SDS011;2886;49.722;8.612;2023-04-24T08:30:45;2.33;;;2.13;;
5722;SDS011;2886;49.722;8.612;2023-04-24T08:33:12;2.23;;;2.00;;
5722;SDS011;2886;49.722;8.612;2023-04-24T08:35:37;2.03;;;1.90;;
5722;SDS011;2886;49.722;8.612;2023-04-24T08:38:06;2.93;;;2.40;;
5722;SDS011;2886;49.722;8.612;2023-04-24T08:40:32;4.60;;;2.77;;
5722;SDS011;2886;49.722;8.612;2023-04-24T08:42:59;3.00;;;2.60;;
5722;SDS011;2886;49.722;8.612;2023-04-24T08:45:25;2.50;;;2.30;;
5722;SDS011;2886;49.722;8.612;2023-04-24T08:47:52;2.93;;;2.33;;
5722;SDS011;2886;49.722;8.612;2023-04-24T08:50:19;2.53;;;2.33;;
5722;SDS011;2886;49.722;8.612;2023-04-24T08:52:45;3.63;;;2.50;;
5722;SDS011;2886;49.722;8.612;2023-04-24T08:55:14;3.17;;;2.47;;
5722;SDS011;2886;49.722;8.612;2023-04-24T08:57:41;2.53;;;2.20;;
5722;SDS011;2886;49.722;8.612;2023-04-24T09:00:10;4.67;;;2.83;;
5722;SDS011;2886;49.722;8.612;2023-04-24T09:02:36;2.97;;;2.63;;
5722;SDS011;2886;49.722;8.612;2023-04-24T09:05:05;2.43;;;2.10;;
5722;SDS011;2886;49.722;8.612;2023-04-24T09:07:32;2.50;;;2.00;;
5722;SDS011;2886;49.722;8.612;2023-04-24T09:10:01;11.80;;;2.73;;
5722;SDS011;2886;49.722;8.612;2023-04-24T09:12:27;2.60;;;2.40;;
5722;SDS011;2886;49.722;8.612;2023-04-24T09:14:52;3.10;;;2.73;;
5722;SDS011;2886;49.722;8.612;2023-04-24T09:17:20;8.70;;;3.03;;
5722;SDS011;2886;49.722;8.612;2023-04-24T09:19:48;4.93;;;2.90;;
5722;SDS011;2886;49.722;8.612;2023-04-24T09:22:13;5.83;;;3.43;;
5722;SDS011;2886;49.722;8.612;2023-04-24T09:24:40;4.93;;;2.70;;
5722;SDS011;2886;49.722;8.612;2023-04-24T09:27:06;2.90;;;2.30;;
5722;SDS011;2886;49.722;8.612;2023-04-24T09:29:32;3.30;;;2.73;;
5722;SDS011;2886;49.722;8.612;2023-04-24T09:31:58;4.47;;;2.70;;
5722;SDS011;2886;49.722;8.612;2023-04-24T09:34:25;2.60;;;2.40;;
5722;SDS011;2886;49.722;8.612;2023-04-24T09:36:52;4.13;;;3.23;;
5722;SDS011;2886;49.722;8.612;2023-04-24T09:39:18;3.53;;;2.80;;
5722;SDS011;2886;49.722;8.612;2023-04-24T09:41:53;2.80;;;2.40;;
5722;SDS011;2886;49.722;8.612;2023-04-24T09:44:22;2.83;;;2.63;;
5722;SDS011;2886;49.722;8.612;2023-04-24T09:46:51;5.90;;;2.87;;
5722;SDS011;2886;49.722;8.612;2023-04-24T09:49:25;9.90;;;2.90;;
5722;SDS011;2886;49.722;8.612;2023-04-24T09:51:52;5.10;;;2.77;;
5722;SDS011;2886;49.722;8.612;2023-04-24T09:54:28;3.50;;;2.60;;
5722;SDS011;2886;49.722;8.612;2023-04-24T09:56:54;6.20;;;3.10;;
5722;SDS011;2886;49.722;8.612;2023-04-24T09:59:21;4.70;;;3.00;;
5722;SDS011;2886;49.722;8.612;2023-04-24T10:01:47;2.53;;;2.33;;
5722;SDS011;2886;49.722;8.612;2023-04-24T10:06:52;3.47;;;2.33;;
5722;SDS011;2886;49.722;8.612;2023-04-24T10:09:23;2.93;;;2.00;;
5722;SDS011;2886;49.722;8.612;2023-04-24T10:11:50;3.10;;;1.90;;
5722;SDS011;2886;49.722;8.612;2023-04-24T10:14:18;3.13;;;2.57;;
5722;SDS011;2886;49.722;8.612;2023-04-24T10:16:49;2.20;;;2.00;;
5722;SDS011;2886;49.722;8.612;2023-04-24T10:19:17;2.27;;;2.07;;
5722;SDS011;2886;49.722;8.612;2023-04-24T10:21:46;2.90;;;2.00;;
5722;SDS011;2886;49.722;8.612;2023-04-24T10:24:15;3.40;;;1.60;;
5722;SDS011;2886;49.722;8.612;2023-04-24T10:26:43;3.07;;;2.10;;
5722;SDS011;2886;49.722;8.612;2023-04-24T10:29:10;2.93;;;2.27;;
5722;SDS011;2886;49.722;8.612;2023-04-24T10:31:38;2.13;;;1.93;;
5722;SDS011;2886;49.722;8.612;2023-04-24T10:34:04;2.23;;;1.80;;
5722;SDS011;2886;49.722;8.612;2023-04-24T10:36:31;3.30;;;2.20;;
5722;SDS011;2886;49.722;8.612;2023-04-24T10:39:00;3.00;;;2.47;;
5722;SDS011;2886;49.722;8.612;2023-04-24T10:41:28;4.17;;;2.97;;
5722;SDS011;2886;49.722;8.612;2023-04-24T10:46:35;3.90;;;2.57;;
5722;SDS011;2886;49.722;8.612;2023-04-24T10:49:05;2.73;;;2.30;;
5722;SDS011;2886;49.722;8.612;2023-04-24T10:51:46;3.00;;;2.20;;
5722;SDS011;2886;49.722;8.612;2023-04-24T10:54:27;2.30;;;2.10;;
5722;SDS011;2886;49.722;8.612;2023-04-24T10:56:55;2.60;;;2.40;;
5722;SDS011;2886;49.722;8.612;2023-04-24T10:59:48;2.60;;;2.33;;
5722;SDS011;2886;49.722;8.612;2023-04-24T11:02:15;4.23;;;2.30;;
5722;SDS011;2886;49.722;8.612;2023-04-24T11:04:42;2.40;;;2.17;;
5722;SDS011;2886;49.722;8.612;2023-04-24T11:07:09;2.40;;;2.10;;
5722;SDS011;2886;49.722;8.612;2023-04-24T11:09:35;2.60;;;2.13;;
5722;SDS011;2886;49.722;8.612;2023-04-24T11:12:02;2.07;;;1.87;;
5722;SDS011;2886;49.722;8.612;2023-04-24T11:15:07;3.27;;;2.30;;
5722;SDS011;2886;49.722;8.612;2023-04-24T11:17:36;3.10;;;2.50;;
5722;SDS011;2886;49.722;8.612;2023-04-24T11:22:33;2.87;;;2.40;;
5722;SDS011;2886;49.722;8.612;2023-04-24T11:25:01;4.80;;;2.30;;
5722;SDS011;2886;49.722;8.612;2023-04-24T11:27:29;2.90;;;2.10;;
5722;SDS011;2886;49.722;8.612;2023-04-24T11:35:01;2.53;;;2.30;;
5722;SDS011;2886;49.722;8.612;2023-04-24T11:37:41;3.90;;;2.40;;
5722;SDS011;2886;49.722;8.612;2023-04-24T11:40:09;3.57;;;2.30;;
5722;SDS011;2886;49.722;8.612;2023-04-24T11:42:40;4.77;;;2.70;;
5722;SDS011;2886;49.722;8.612;2023-04-24T11:45:17;4.50;;;2.57;;
5722;SDS011;2886;49.722;8.612;2023-04-24T11:47:46;3.00;;;2.37;;
5722;SDS011;2886;49.722;8.612;2023-04-24T11:50:12;6.20;;;3.00;;
5722;SDS011;2886;49.722;8.612;2023-04-24T11:52:42;2.40;;;2.20;;
5722;SDS011;2886;49.722;8.612;2023-04-24T11:57:47;2.53;;;2.13;;
5722;SDS011;2886;49.722;8.612;2023-04-24T12:00:19;3.03;;;2.40;;
5722;SDS011;2886;49.722;8.612;2023-04-24T12:03:04;9.13;;;2.83;;
5722;SDS011;2886;49.722;8.612;2023-04-24T12:05:33;4.83;;;2.70;;
5722;SDS011;2886;49.722;8.612;2023-04-24T12:08:00;6.23;;;4.50;;
5722;SDS011;2886;49.722;8.612;2023-04-24T12:10:27;3.40;;;3.00;;
5722;SDS011;2886;49.722;8.612;2023-04-24T12:12:55;5.90;;;2.47;;
5722;SDS011;2886;49.722;8.612;2023-04-24T12:15:22;7.83;;;2.90;;
5722;SDS011;2886;49.722;8.612;2023-04-24T12:17:49;4.10;;;2.57;;
5722;SDS011;2886;49.722;8.612;2023-04-24T12:20:17;4.23;;;2.97;;
5722;SDS011;2886;49.722;8.612;2023-04-24T12:22:52;3.67;;;3.00;;
5722;SDS011;2886;49.722;8.612;2023-04-24T12:25:20;3.33;;;2.77;;
5722;SDS011;2886;49.722;8.612;2023-04-24T12:27:51;7.00;;;3.53;;
5722;SDS011;2886;49.722;8.612;2023-04-24T12:30:48;4.80;;;3.23;;
5722;SDS011;2886;49.722;8.612;2023-04-24T12:33:17;5.33;;;3.20;;
5722;SDS011;2886;49.722;8.612;2023-04-24T12:35:44;6.37;;;3.53;;
5722;SDS011;2886;49.722;8.612;2023-04-24T12:38:11;5.93;;;2.67;;
5722;SDS011;2886;49.722;8.612;2023-04-24T12:40:38;4.93;;;3.20;;
5722;SDS011;2886;49.722;8.612;2023-04-24T12:43:16;2.80;;;2.60;;
5722;SDS011;2886;49.722;8.612;2023-04-24T12:45:43;4.87;;;2.40;;
5722;SDS011;2886;49.722;8.612;2023-04-24T12:48:12;2.43;;;2.10;;
5722;SDS011;2886;49.722;8.612;2023-04-24T12:50:40;2.53;;;2.33;;
5722;SDS011;2886;49.722;8.612;2023-04-24T12:53:07;4.87;;;2.90;;
5722;SDS011;2886;49.722;8.612;2023-04-24T12:55:34;5.70;;;2.10;;
5722;SDS011;2886;49.722;8.612;2023-04-24T12:57:59;3.50;;;2.43;;
5722;SDS011;2886;49.722;8.612;2023-04-24T13:00:26;4.67;;;2.60;;
5722;SDS011;2886;49.722;8.612;2023-04-24T13:02:52;5.33;;;2.70;;
5722;SDS011;2886;49.722;8.612;2023-04-24T13:05:18;4.80;;;3.40;;
5722;SDS011;2886;49.722;8.612;2023-04-24T13:07:43;3.53;;;2.70;;
5722;SDS011;2886;49.722;8.612;2023-04-24T13:10:09;3.47;;;2.77;;
5722;SDS011;2886;49.722;8.612;2023-04-24T13:12:35;4.03;;;2.57;;
5722;SDS011;2886;49.722;8.612;2023-04-24T13:15:00;2.90;;;2.53;;
5722;SDS011;2886;49.722;8.612;2023-04-24T13:17:26;3.27;;;2.43;;
5722;SDS011;2886;49.722;8.612;2023-04-24T13:19:54;3.60;;;2.70;;
5722;SDS011;2886;49.722;8.612;2023-04-24T13:22:20;4.77;;;2.80;;
5722;SDS011;2886;49.722;8.612;2023-04-24T13:24:45;3.90;;;2.70;;
5722;SDS011;2886;49.722;8.612;2023-04-24T13:27:13;5.97;;;2.60;;
5722;SDS011;2886;49.722;8.612;2023-04-24T13:29:41;3.23;;;2.60;;
5722;SDS011;2886;49.722;8.612;2023-04-24T13:32:07;3.50;;;2.30;;
5722;SDS011;2886;49.722;8.612;2023-04-24T13:34:33;3.73;;;2.67;;
5722;SDS011;2886;49.722;8.612;2023-04-24T13:37:02;4.40;;;2.70;;
5722;SDS011;2886;49.722;8.612;2023-04-24T13:39:31;2.87;;;2.63;;
5722;SDS011;2886;49.722;8.612;2023-04-24T13:41:57;2.63;;;2.43;;
5722;SDS011;2886;49.722;8.612;2023-04-24T13:44:23;5.00;;;2.83;;
5722;SDS011;2886;49.722;8.612;2023-04-24T13:46:50;4.43;;;3.20;;
5722;SDS011;2886;49.722;8.612;2023-04-24T13:49:19;4.10;;;2.90;;
5722;SDS011;2886;49.722;8.612;2023-04-24T13:51:46;4.20;;;2.53;;
5722;SDS011;2886;49.722;8.612;2023-04-24T13:54:12;3.97;;;2.93;;
5722;SDS011;2886;49.722;8.612;2023-04-24T13:56:39;3.57;;;2.40;;
5722;SDS011;2886;49.722;8.612;2023-04-24T13:59:05;6.53;;;2.37;;
5722;SDS011;2886;49.722;8.612;2023-04-24T14:01:32;3.50;;;2.53;;
5722;SDS011;2886;49.722;8.612;2023-04-24T14:03:57;2.77;;;2.33;;
5722;SDS011;2886;49.722;8.612;2023-04-24T14:06:23;3.03;;;2.50;;
5722;SDS011;2886;49.722;8.612;2023-04-24T14:08:50;3.27;;;2.70;;
5722;SDS011;2886;49.722;8.612;2023-04-24T14:11:16;5.57;;;3.07;;
5722;SDS011;2886;49.722;8.612;2023-04-24T14:13:42;3.67;;;2.43;;
5722;SDS011;2886;49.722;8.612;2023-04-24T14:16:08;3.10;;;2.43;;
5722;SDS011;2886;49.722;8.612;2023-04-24T14:18:35;3.43;;;2.40;;
5722;SDS011;2886;49.722;8.612;2023-04-24T14:21:01;3.40;;;2.70;;
5722;SDS011;2886;49.722;8.612;2023-04-24T14:23:28;4.60;;;2.63;;
5722;SDS011;2886;49.722;8.612;2023-04-24T14:25:53;2.83;;;2.43;;
5722;SDS011;2886;49.722;8.612;2023-04-24T14:28:19;4.30;;;2.27;;
5722;SDS011;2886;49.722;8.612;2023-04-24T14:30:46;4.20;;;2.87;;
5722;SDS011;2886;49.722;8.612;2023-04-24T14:33:12;6.50;;;2.13;;
5722;SDS011;2886;49.722;8.612;2023-04-24T14:35:38;3.10;;;2.07;;
5722;SDS011;2886;49.722;8.612;2023-04-24T14:38:07;2.37;;;2.10;;
5722;SDS011;2886;49.722;8.612;2023-04-24T14:40:33;2.60;;;2.00;;
5722;SDS011;2886;49.722;8.612;2023-04-24T14:42:59;4.53;;;2.50;;
5722;SDS011;2886;49.722;8.612;2023-04-24T14:45:25;3.13;;;2.10;;
5722;SDS011;2886;49.722;8.612;2023-04-24T14:47:52;6.47;;;2.30;;
5722;SDS011;2886;49.722;8.612;2023-04-24T14:50:18;3.17;;;2.40;;
5722;SDS011;2886;49.722;8.612;2023-04-24T14:52:44;2.50;;;2.30;;
5722;SDS011;2886;49.722;8.612;2023-04-24T14:55:12;6.00;;;2.73;;
5722;SDS011;2886;49.722;8.612;2023-04-24T14:57:38;6.67;;;2.53;;
5722;SDS011;2886;49.722;8.612;2023-04-24T15:00:13;6.67;;;2.63;;
5722;SDS011;2886;49.722;8.612;2023-04-24T15:02:42;3.27;;;2.27;;
5722;SDS011;2886;49.722;8.612;2023-04-24T15:05:11;6.13;;;2.83;;
5722;SDS011;2886;49.722;8.612;2023-04-24T15:07:37;3.43;;;2.30;;
5722;SDS011;2886;49.722;8.612;2023-04-24T15:10:06;3.93;;;2.80;;
5722;SDS011;2886;49.722;8.612;2023-04-24T15:12:33;2.77;;;2.40;;
5722;SDS011;2886;49.722;8.612;2023-04-24T15:14:58;5.10;;;2.80;;
5722;SDS011;2886;49.722;8.612;2023-04-24T15:17:24;9.20;;;2.53;;
5722;SDS011;2886;49.722;8.612;2023-04-24T15:19:51;5.10;;;2.70;;
5722;SDS011;2886;49.722;8.612;2023-04-24T15:22:16;3.07;;;2.67;;
5722;SDS011;2886;49.722;8.612;2023-04-24T15:24:47;4.27;;;2.70;;
5722;SDS011;2886;49.722;8.612;2023-04-24T15:27:13;2.70;;;2.43;;
5722;SDS011;2886;49.722;8.612;2023-04-24T15:29:39;4.30;;;2.30;;
5722;SDS011;2886;49.722;8.612;2023-04-24T15:32:04;3.60;;;2.43;;